createdAt,value
2023-02-02T00:00:48.857Z,2.97
2023-02-02T00:05:54.295Z,3.63
2023-02-02T00:10:57.268Z,4.37
2023-02-02T00:16:00.149Z,4.77
2023-02-02T00:21:04.610Z,2.90
2023-02-02T00:26:07.425Z,3.27
2023-02-02T00:31:10.440Z,3.80
2023-02-02T00:36:14.756Z,2.77
2023-02-02T00:41:17.846Z,2.33
2023-02-02T00:46:20.965Z,2.13
2023-02-02T00:51:25.196Z,2.80
2023-02-02T00:56:28.087Z,1.53
2023-02-02T01:01:30.918Z,0.87
2023-02-02T01:06:35.284Z,1.17
2023-02-02T01:11:38.370Z,1.40
2023-02-02T01:16:41.212Z,1.43
2023-02-02T01:21:46.256Z,2.00
2023-02-02T01:26:49.194Z,1.87
2023-02-02T01:31:52.299Z,2.00
2023-02-02T01:36:56.558Z,3.00
2023-02-02T01:41:59.411Z,2.50
2023-02-02T01:47:03.878Z,2.37
2023-02-02T01:52:10.091Z,2.70
2023-02-02T01:57:16.022Z,2.10
2023-02-02T02:02:19.247Z,3.20
2023-02-02T02:07:23.837Z,1.73
2023-02-02T02:12:26.883Z,2.90
2023-02-02T02:17:40.888Z,2.40
2023-02-02T02:23:26.729Z,2.63
2023-02-02T02:28:44.054Z,3.73
2023-02-02T02:33:52.678Z,3.67
2023-02-02T02:39:00.265Z,4.33
2023-02-02T02:44:09.654Z,4.30
2023-02-02T02:49:15.363Z,3.50
2023-02-02T02:54:21.022Z,4.27
2023-02-02T02:59:34.173Z,4.07
2023-02-02T03:04:41.805Z,4.10
2023-02-02T03:09:45.501Z,3.30
2023-02-02T03:14:48.330Z,4.27
2023-02-02T03:19:52.547Z,3.73
2023-02-02T03:24:56.938Z,4.93
2023-02-02T03:30:00.016Z,4.73
2023-02-02T03:35:04.461Z,4.70
2023-02-02T03:40:08.222Z,3.70
2023-02-02T03:45:12.005Z,3.77
2023-02-02T03:50:16.198Z,3.37
2023-02-02T03:55:19.092Z,3.80
2023-02-02T04:00:22.555Z,4.17
2023-02-02T04:05:27.877Z,4.13
2023-02-02T04:10:30.722Z,4.43
2023-02-02T04:15:33.551Z,3.87
2023-02-02T04:20:37.746Z,3.47
2023-02-02T04:25:40.559Z,3.90
2023-02-02T04:30:43.512Z,3.23
2023-02-02T04:35:47.780Z,3.47
2023-02-02T04:40:51.039Z,3.10
2023-02-02T04:45:56.599Z,3.60
2023-02-02T04:51:25.259Z,4.03
2023-02-02T04:56:30.750Z,3.87
2023-02-02T05:01:33.594Z,4.27
2023-02-02T05:06:37.879Z,3.17
2023-02-02T05:11:44.499Z,4.03
2023-02-02T05:16:47.358Z,3.20
2023-02-02T05:21:51.660Z,3.60
2023-02-02T05:26:58.556Z,4.20
2023-02-02T05:32:01.561Z,4.20
2023-02-02T05:37:06.284Z,3.77
2023-02-02T05:42:10.207Z,4.47
2023-02-02T05:47:13.097Z,3.50
2023-02-02T05:52:19.293Z,4.00
2023-02-02T05:57:22.095Z,3.13
2023-02-02T06:02:24.928Z,3.70
2023-02-02T06:07:29.158Z,3.23
2023-02-02T06:12:32.000Z,4.83
2023-02-02T06:17:34.898Z,2.93
2023-02-02T06:22:39.048Z,3.40
2023-02-02T06:27:41.913Z,4.17
2023-02-02T06:32:44.738Z,4.63
2023-02-02T06:37:49.172Z,4.97
2023-02-02T06:42:56.960Z,3.60
2023-02-02T06:48:00.902Z,3.70
2023-02-02T06:53:05.567Z,4.73
2023-02-02T06:58:08.414Z,4.27
2023-02-02T07:03:11.183Z,7.87
2023-02-02T07:08:16.943Z,4.93
2023-02-02T07:13:19.800Z,3.47
2023-02-02T07:18:22.911Z,4.13
2023-02-02T07:23:27.142Z,4.30
2023-02-02T07:28:30.079Z,3.80
2023-02-02T07:33:38.671Z,4.10
2023-02-02T07:38:43.059Z,4.60
2023-02-02T07:43:48.133Z,4.60
2023-02-02T07:48:55.676Z,4.87
2023-02-02T07:54:00.106Z,4.20
2023-02-02T07:59:02.924Z,4.00
2023-02-02T08:04:06.043Z,4.23
2023-02-02T08:09:10.979Z,3.70
2023-02-02T08:14:18.254Z,3.43
2023-02-02T08:19:21.153Z,3.67
2023-02-02T08:24:25.450Z,3.83
2023-02-02T08:29:28.263Z,3.80
2023-02-02T08:34:31.224Z,3.00
2023-02-02T08:39:36.098Z,3.27
2023-02-02T08:45:00.683Z,3.77
2023-02-02T08:50:02.106Z,3.57
2023-02-02T08:55:07.181Z,3.80
2023-02-02T09:00:11.792Z,3.07
2023-02-02T09:05:17.414Z,4.13
2023-02-02T09:10:21.785Z,4.10
2023-02-02T09:15:24.881Z,4.17
2023-02-02T09:20:27.965Z,3.57
2023-02-02T09:25:32.543Z,2.90
2023-02-02T09:30:35.497Z,3.77
2023-02-02T09:35:38.312Z,3.43
2023-02-02T09:40:42.707Z,5.07
2023-02-02T09:45:49.937Z,5.67
2023-02-02T09:50:54.427Z,3.23
2023-02-02T09:56:00.674Z,3.40
2023-02-02T10:01:06.376Z,2.60
2023-02-02T10:06:17.604Z,2.90
2023-02-02T10:11:29.294Z,2.97
2023-02-02T10:16:32.486Z,3.20
2023-02-02T10:21:40.988Z,2.93
2023-02-02T10:26:48.432Z,3.53
2023-02-02T10:31:59.908Z,2.57
2023-02-02T10:37:21.518Z,3.70
2023-02-02T10:42:33.619Z,3.10
2023-02-02T10:47:36.731Z,2.80
2023-02-02T10:52:40.991Z,4.63
2023-02-02T10:58:01.727Z,2.93
2023-02-02T11:03:07.159Z,2.87
2023-02-02T11:08:14.606Z,3.97
2023-02-02T11:13:26.814Z,2.40
2023-02-02T11:18:33.657Z,1.97
2023-02-02T11:23:37.367Z,1.80
2023-02-02T11:28:41.697Z,1.77
2023-02-02T11:33:44.540Z,1.80
2023-02-02T11:38:47.433Z,2.33
2023-02-02T11:43:53.821Z,3.03
2023-02-02T11:49:00.783Z,2.07
2023-02-02T11:54:07.014Z,1.67
2023-02-02T11:59:31.624Z,2.07
2023-02-02T12:04:36.033Z,2.53
2023-02-02T12:09:38.920Z,2.40
2023-02-02T12:14:48.678Z,1.57
2023-02-02T12:20:12.922Z,3.27
2023-02-02T12:25:35.609Z,2.60
2023-02-02T12:30:43.872Z,1.77
2023-02-02T12:35:56.795Z,2.00
2023-02-02T12:41:13.969Z,4.47
2023-02-02T12:46:41.678Z,2.30
2023-02-02T12:51:56.705Z,2.10
2023-02-02T12:57:05.042Z,2.77
2023-02-02T13:02:18.387Z,2.30
2023-02-02T13:07:35.638Z,3.37
2023-02-02T13:12:42.144Z,2.33
2023-02-02T13:17:49.992Z,3.37
2023-02-02T13:22:55.543Z,2.67
2023-02-02T13:28:00.036Z,2.13
2023-02-02T13:33:07.324Z,2.20
2023-02-02T13:38:17.106Z,2.90
2023-02-02T13:43:26.631Z,2.93
2023-02-02T13:48:35.805Z,2.60
2023-02-02T13:53:50.653Z,3.03
2023-02-02T13:59:09.890Z,3.17
2023-02-02T14:04:23.181Z,2.40
2023-02-02T14:09:27.523Z,2.70
2023-02-02T14:14:35.166Z,3.27
2023-02-02T14:19:55.935Z,3.27
2023-02-02T14:24:58.794Z,3.03
2023-02-02T14:30:02.181Z,3.47
2023-02-02T14:35:38.558Z,3.07
2023-02-02T14:40:48.690Z,3.10
2023-02-02T14:46:34.165Z,3.50
2023-02-02T14:51:49.775Z,3.53
2023-02-02T14:56:58.042Z,3.77
2023-02-02T15:02:07.586Z,3.97
2023-02-02T15:07:53.844Z,4.17
2023-02-02T15:13:06.546Z,2.53
2023-02-02T15:18:18.331Z,2.80
2023-02-02T15:23:26.684Z,3.23
2023-02-02T15:28:39.308Z,3.10
2023-02-02T15:33:44.196Z,4.10
2023-02-02T15:38:49.451Z,4.80
2023-02-02T15:43:53.679Z,3.20
2023-02-02T15:49:35.183Z,2.50
2023-02-02T15:54:39.120Z,2.93
2023-02-02T15:59:43.967Z,1.77
2023-02-02T16:04:46.852Z,2.00
2023-02-02T16:09:50.018Z,3.03
2023-02-02T16:14:55.380Z,2.60
2023-02-02T16:20:01.845Z,2.13
2023-02-02T16:25:10.963Z,2.20
2023-02-02T16:30:24.848Z,2.20
2023-02-02T16:35:36.789Z,2.47
2023-02-02T16:40:39.742Z,2.20
2023-02-02T16:45:48.105Z,2.10
2023-02-02T16:51:05.185Z,2.57
2023-02-02T16:56:08.830Z,2.47
2023-02-02T17:01:16.655Z,3.97
2023-02-02T17:06:29.595Z,2.30
2023-02-02T17:11:34.137Z,3.73
2023-02-02T17:16:38.360Z,2.20
2023-02-02T17:21:41.133Z,3.27
2023-02-02T17:26:45.065Z,2.57
2023-02-02T17:31:49.334Z,1.83
2023-02-02T17:36:54.150Z,2.30
2023-02-02T17:41:57.054Z,3.00
2023-02-02T17:47:01.163Z,2.03
2023-02-02T17:52:03.944Z,2.57
2023-02-02T17:57:06.734Z,2.23
2023-02-02T18:02:13.602Z,2.83
2023-02-02T18:07:16.371Z,3.03
2023-02-02T18:12:19.827Z,2.40
2023-02-02T18:17:23.999Z,3.10
2023-02-02T18:22:27.053Z,3.03
2023-02-02T18:27:30.288Z,2.13
2023-02-02T18:32:37.375Z,4.23
2023-02-02T18:37:40.283Z,2.73
2023-02-02T18:42:43.108Z,3.27
2023-02-02T18:47:47.354Z,1.73
2023-02-02T18:52:50.108Z,2.83
2023-02-02T18:57:52.868Z,1.50
2023-02-02T19:02:56.966Z,2.50
2023-02-02T19:07:59.792Z,3.17
2023-02-02T19:13:11.802Z,2.20
2023-02-02T19:18:17.639Z,1.73
2023-02-02T19:23:23.143Z,2.20
2023-02-02T19:28:28.204Z,2.60
2023-02-02T19:33:38.927Z,1.87
2023-02-02T19:38:41.988Z,1.30
2023-02-02T19:43:47.747Z,1.20
2023-02-02T19:48:53.844Z,1.87
2023-02-02T19:54:00.199Z,2.03
2023-02-02T19:59:03.048Z,1.33
2023-02-02T20:04:12.246Z,1.77
2023-02-02T20:09:17.377Z,1.87
2023-02-02T20:14:29.408Z,1.80
2023-02-02T20:19:36.893Z,1.70
2023-02-02T20:24:40.761Z,1.97
2023-02-02T20:29:45.036Z,1.93
2023-02-02T20:34:51.142Z,2.40
2023-02-02T20:39:56.711Z,2.83
2023-02-02T20:44:59.505Z,2.97
2023-02-02T20:50:04.111Z,2.60
2023-02-02T20:55:07.673Z,2.33
2023-02-02T21:00:13.562Z,2.80
2023-02-02T21:05:17.940Z,2.90
2023-02-02T21:10:20.783Z,2.07
2023-02-02T21:15:23.618Z,2.53
2023-02-02T21:20:28.144Z,3.50
2023-02-02T21:25:31.086Z,3.00
2023-02-02T21:30:33.929Z,2.43
2023-02-02T21:35:38.134Z,1.60
2023-02-02T21:40:41.495Z,2.23
2023-02-02T21:45:45.387Z,2.03
2023-02-02T21:50:49.554Z,1.63
2023-02-02T21:55:54.775Z,1.43
2023-02-02T22:00:59.705Z,1.20
2023-02-02T22:06:24.177Z,2.07
2023-02-02T22:11:31.137Z,1.47
2023-02-02T22:16:38.474Z,2.27
2023-02-02T22:21:42.603Z,1.30
2023-02-02T22:26:45.379Z,1.87
2023-02-02T22:31:48.726Z,1.67
2023-02-02T22:36:53.042Z,2.17
2023-02-02T22:41:55.852Z,1.90
2023-02-02T22:46:58.672Z,1.90
2023-02-02T22:52:04.381Z,2.17
2023-02-02T22:57:07.223Z,2.30
2023-02-02T23:02:10.057Z,4.33
2023-02-02T23:07:14.214Z,2.17
2023-02-02T23:12:17.042Z,2.67
2023-02-02T23:17:19.851Z,2.80
2023-02-02T23:22:23.985Z,2.43
2023-02-02T23:27:26.777Z,3.83
2023-02-02T23:32:29.728Z,2.57
2023-02-02T23:37:33.886Z,4.10
2023-02-02T23:42:37.484Z,2.60
2023-02-02T23:47:40.443Z,2.30
2023-02-02T23:52:46.247Z,3.50
2023-02-02T23:57:49.027Z,2.43
